Time;durP1;ratioP1;P1;durP2;ratioP2;P2;SDS_P1;SDS_P2;PMS_P1;PMS_P2;Temp;Humidity;BMP_temperature;BMP_pressure;BME280_temperature;BME280_humidity;BME280_pressure;Samples;Min_cycle;Max_cycle;Signal;HPM_P1;HPM_P2
2021/03/26 00:02:04;;;;;;;26.92;3.28;;;21.70;28.40;;;;;;5116737;27;20079;-55
2021/03/26 00:04:31;;;;;;;23.73;2.75;;;21.60;28.40;;;;;;5113949;27;20113;-57
2021/03/26 00:06:57;;;;;;;15.63;2.88;;;21.60;28.50;;;;;;5116806;27;20067;-57
2021/03/26 00:09:28;;;;;;;20.52;3.55;;;21.70;28.50;;;;;;5118557;27;20522;-54
2021/03/26 00:11:58;;;;;;;24.05;4.13;;;21.90;28.30;;;;;;5113202;27;20108;-58
2021/03/26 00:14:25;;;;;;;19.90;3.70;;;21.90;28.30;;;;;;5115509;27;20587;-56
2021/03/26 00:16:53;;;;;;;23.33;3.50;;;21.70;28.60;;;;;;5114819;27;20165;-55
2021/03/26 00:19:20;;;;;;;38.13;2.92;;;21.80;28.50;;;;;;5116868;27;20090;-58
2021/03/26 00:21:46;;;;;;;16.63;3.05;;;21.70;28.60;;;;;;5119464;27;20356;-53
2021/03/26 00:24:13;;;;;;;24.60;3.60;;;21.50;29.00;;;;;;5116357;27;20103;-54
2021/03/26 00:26:40;;;;;;;23.92;3.22;;;21.50;29.00;;;;;;5116048;27;20122;-55
2021/03/26 00:29:11;;;;;;;33.90;3.70;;;21.40;29.20;;;;;;5113873;27;20092;-55
2021/03/26 00:31:40;;;;;;;32.97;3.60;;;21.10;29.40;;;;;;5115658;27;20541;-53
2021/03/26 00:34:07;;;;;;;30.45;3.78;;;21.10;29.70;;;;;;5110793;27;20486;-52
2021/03/26 00:36:35;;;;;;;30.25;3.33;;;21.10;29.80;;;;;;5120956;27;20076;-55
2021/03/26 00:39:08;;;;;;;19.75;3.05;;;20.80;30.20;;;;;;5118416;27;20231;-52
2021/03/26 00:41:37;;;;;;;21.67;3.97;;;20.90;30.60;;;;;;5108518;27;20068;-57
2021/03/26 00:44:04;;;;;;;26.13;3.63;;;20.80;30.70;;;;;;5109551;27;20426;-56
2021/03/26 00:46:34;;;;;;;21.00;3.85;;;20.60;31.00;;;;;;5108767;27;20099;-56
2021/03/26 00:49:01;;;;;;;20.45;3.17;;;20.60;31.30;;;;;;5118757;27;20079;-52
2021/03/26 00:51:28;;;;;;;15.27;3.85;;;20.50;31.60;;;;;;5114179;27;20488;-53
2021/03/26 00:53:54;;;;;;;21.98;3.83;;;20.20;32.00;;;;;;5115243;27;20079;-53
2021/03/26 00:56:21;;;;;;;29.20;3.30;;;19.80;32.30;;;;;;5118182;27;20076;-52
2021/03/26 00:58:48;;;;;;;33.35;4.47;;;19.90;33.00;;;;;;5113974;28;20113;-53
2021/03/26 01:01:14;;;;;;;19.40;3.17;;;19.80;33.30;;;;;;5097192;28;20080;-53
2021/03/26 01:03:41;;;;;;;26.95;3.13;;;19.80;33.30;;;;;;5109553;28;20120;-52
2021/03/26 01:06:09;;;;;;;30.80;2.95;;;19.80;33.60;;;;;;5115111;28;20099;-53
2021/03/26 01:08:36;;;;;;;29.95;3.90;;;19.90;33.20;;;;;;5109593;28;20224;-56
2021/03/26 01:11:25;;;;;;;26.05;3.58;;;20.00;33.20;;;;;;5111181;28;20191;-53
2021/03/26 01:13:52;;;;;;;29.63;3.58;;;19.90;33.70;;;;;;5089690;28;20531;-55
2021/03/26 01:16:20;;;;;;;18.20;3.35;;;19.80;33.90;;;;;;5110001;28;20080;-55
2021/03/26 01:18:47;;;;;;;24.08;2.80;;;19.70;34.20;;;;;;5113795;28;20650;-53
2021/03/26 01:21:18;;;;;;;17.10;3.22;;;19.50;34.30;;;;;;5113156;28;20544;-53
2021/03/26 01:23:46;;;;;;;20.85;3.70;;;19.40;34.80;;;;;;5104766;28;20091;-55
2021/03/26 01:26:13;;;;;;;13.73;3.00;;;19.30;35.20;;;;;;5115524;28;20242;-54
2021/03/26 01:28:40;;;;;;;21.15;2.92;;;19.10;35.70;;;;;;5113615;28;20149;-53
2021/03/26 01:31:07;;;;;;;14.32;2.70;;;19.00;36.00;;;;;;5112189;28;20076;-54
2021/03/26 01:33:34;;;;;;;14.68;3.50;;;18.90;36.40;;;;;;5109309;28;20072;-57
2021/03/26 01:36:01;;;;;;;20.75;3.25;;;18.70;36.80;;;;;;5108549;28;20100;-54
2021/03/26 01:38:28;;;;;;;19.52;3.10;;;18.60;37.10;;;;;;5108552;28;20068;-56
2021/03/26 01:40:59;;;;;;;18.95;3.50;;;18.40;37.30;;;;;;5099346;28;20076;-57
2021/03/26 01:43:51;;;;;;;13.15;2.22;;;18.50;37.50;;;;;;5113265;28;20072;-56
2021/03/26 01:46:18;;;;;;;14.25;2.97;;;18.40;37.40;;;;;;5106813;28;20091;-56
2021/03/26 01:48:51;;;;;;;13.73;3.90;;;18.40;37.60;;;;;;5113422;28;20428;-52
2021/03/26 01:51:24;;;;;;;11.57;3.03;;;18.40;37.70;;;;;;5108070;28;20076;-53
2021/03/26 01:53:51;;;;;;;9.98;2.70;;;18.30;37.80;;;;;;5119063;27;20157;-57
2021/03/26 01:56:18;;;;;;;13.23;2.95;;;18.30;38.00;;;;;;5112405;27;20079;-54
2021/03/26 01:58:45;;;;;;;19.10;3.15;;;18.30;38.10;;;;;;5101390;27;20069;-58
2021/03/26 02:01:16;;;;;;;17.35;3.22;;;18.20;38.10;;;;;;5113524;27;20076;-55
2021/03/26 02:03:48;;;;;;;12.10;2.50;;;18.10;38.50;;;;;;5116650;27;20074;-54
2021/03/26 02:06:21;;;;;;;12.65;2.67;;;18.10;38.50;;;;;;5111959;27;20456;-54
2021/03/26 02:08:48;;;;;;;17.33;2.80;;;18.00;38.80;;;;;;5096712;27;20155;-55
2021/03/26 02:11:29;;;;;;;11.75;2.53;;;18.00;39.00;;;;;;5096258;27;20181;-56
2021/03/26 02:13:57;;;;;;;10.55;2.90;;;18.00;39.00;;;;;;5111557;27;20076;-56
2021/03/26 02:16:25;;;;;;;12.68;2.63;;;18.10;39.00;;;;;;5117810;27;20429;-55
2021/03/26 02:18:52;;;;;;;17.40;3.75;;;18.00;39.30;;;;;;5111959;27;20068;-58
2021/03/26 02:21:27;;;;;;;11.95;2.70;;;17.90;39.50;;;;;;5110234;27;20081;-54
2021/03/26 02:23:56;;;;;;;13.13;2.60;;;17.90;39.70;;;;;;5116535;27;20071;-54
2021/03/26 02:26:40;;;;;;;19.05;3.08;;;17.90;40.00;;;;;;5112321;27;20583;-57
2021/03/26 02:29:23;;;;;;;9.55;2.65;;;17.80;40.30;;;;;;5116441;27;20083;-53
2021/03/26 02:31:55;;;;;;;17.55;3.67;;;17.80;40.40;;;;;;5089065;28;20163;-55
2021/03/26 02:34:22;;;;;;;18.80;3.20;;;17.80;40.50;;;;;;5116807;27;20078;-54
2021/03/26 02:36:57;;;;;;;18.38;2.63;;;17.80;40.60;;;;;;5115305;27;20078;-52
2021/03/26 02:39:41;;;;;;;14.65;2.28;;;17.80;40.70;;;;;;5114152;27;20094;-56
2021/03/26 02:42:21;;;;;;;20.73;2.70;;;17.70;41.00;;;;;;5101396;27;20137;-53
2021/03/26 02:45:12;;;;;;;16.80;1.92;;;17.60;41.70;;;;;;5093567;27;20103;-56
2021/03/26 02:47:55;;;;;;;9.52;2.17;;;17.60;41.90;;;;;;5112843;27;20567;-54
2021/03/26 02:51:12;;;;;;;6.63;1.75;;;17.70;42.00;;;;;;5116294;27;20144;-54
2021/03/26 02:53:54;;;;;;;11.13;1.85;;;17.60;41.90;;;;;;5056770;27;20084;-55
2021/03/26 02:56:38;;;;;;;9.25;2.25;;;17.60;42.20;;;;;;5108726;27;20534;-55
2021/03/26 02:59:15;;;;;;;11.35;1.95;;;17.50;42.60;;;;;;5110264;27;20099;-54
2021/03/26 03:01:44;;;;;;;;;;;17.40;42.90;;;;;;5119684;27;20083;-54
2021/03/26 03:04:43;;;;;;;6.05;1.42;;;17.40;43.10;;;;;;5116148;27;20000;-53
2021/03/26 03:07:24;;;;;;;4.22;0.80;;;17.40;43.20;;;;;;5116261;27;20080;-54
2021/03/26 03:09:56;;;;;;;9.93;1.45;;;17.30;43.00;;;;;;5116336;27;20083;-52
2021/03/26 03:12:38;;;;;;;12.38;0.77;;;17.30;43.10;;;;;;5112888;27;20168;-51
2021/03/26 03:15:08;;;;;;;2.75;0.70;;;17.30;43.20;;;;;;5111399;27;20513;-51
2021/03/26 03:17:59;;;;;;;5.25;0.98;;;17.30;43.20;;;;;;5114926;27;20072;-56
2021/03/26 03:20:25;;;;;;;4.18;1.00;;;17.20;43.50;;;;;;5119033;27;20087;-53
2021/03/26 03:23:04;;;;;;;7.53;1.58;;;17.20;43.60;;;;;;5112033;27;20076;-51
2021/03/26 03:25:31;;;;;;;4.65;1.15;;;17.20;43.80;;;;;;5111139;27;20088;-53
2021/03/26 03:28:19;;;;;;;5.40;2.65;;;17.20;47.90;;;;;;5110896;27;20091;-53
2021/03/26 03:30:50;;;;;;;;;;;17.20;43.90;;;;;;5111812;27;20095;-52
2021/03/26 03:33:39;;;;;;;6.60;1.58;;;17.20;44.10;;;;;;5103887;27;19964;-54
2021/03/26 03:36:14;;;;;;;5.82;1.48;;;17.20;44.20;;;;;;5117749;27;20061;-51
2021/03/26 03:39:09;;;;;;;7.07;2.20;;;17.10;44.50;;;;;;5110516;27;20083;-55
2021/03/26 03:41:46;;;;;;;12.15;1.75;;;17.00;44.70;;;;;;5116565;27;20080;-54
2021/03/26 03:44:46;;;;;;;5.03;1.50;;;16.90;45.20;;;;;;5120024;27;20538;-52
2021/03/26 03:47:31;;;;;;;4.00;1.65;;;16.90;45.70;;;;;;5117060;27;20563;-51
2021/03/26 03:50:08;;;;;;;10.27;1.73;;;16.80;46.40;;;;;;5115630;27;20095;-56
2021/03/26 03:52:58;;;;;;;3.50;1.70;;;16.70;46.80;;;;;;5116720;27;20095;-53
2021/03/26 03:55:39;;;;;;;2.22;1.30;;;16.60;47.40;;;;;;5117004;27;20528;-51
2021/03/26 03:58:28;;;;;;;4.75;0.88;;;16.50;47.90;;;;;;5116071;27;20084;-52
2021/03/26 04:01:12;;;;;;;1.75;0.82;;;16.40;48.60;;;;;;5108032;27;20072;-52
2021/03/26 04:03:41;;;;;;;0.60;0.50;;;16.40;49.10;;;;;;5119481;27;20076;-52
2021/03/26 04:06:16;;;;;;;1.65;0.70;;;16.40;49.40;;;;;;5116773;27;20100;-52
2021/03/26 04:09:14;;;;;;;5.30;1.55;;;16.30;49.70;;;;;;5115266;27;20524;-53
2021/03/26 04:11:47;;;;;;;1.88;0.80;;;16.30;50.00;;;;;;5095483;27;20111;-51
2021/03/26 04:14:35;;;;;;;4.15;0.80;;;16.20;50.20;;;;;;5111381;27;20517;-51
2021/03/26 04:17:07;;;;;;;2.58;0.40;;;16.30;50.30;;;;;;5111982;27;20547;-52
2021/03/26 04:19:44;;;;;;;4.65;0.65;;;16.20;50.40;;;;;;5111745;27;20159;-51
2021/03/26 04:22:21;;;;;;;2.42;0.52;;;16.20;50.50;;;;;;5112391;27;20090;-55
2021/03/26 04:24:53;;;;;;;3.15;0.70;;;16.20;50.40;;;;;;5097361;28;20444;-54
2021/03/26 04:27:31;;;;;;;2.83;0.50;;;16.20;50.30;;;;;;5111964;27;20075;-50
2021/03/26 04:30:00;;;;;;;3.75;0.50;;;16.10;50.20;;;;;;5113109;27;20507;-57
2021/03/26 04:32:28;;;;;;;2.95;0.60;;;16.10;50.10;;;;;;5118136;27;20075;-52
2021/03/26 04:34:55;;;;;;;3.63;0.70;;;16.10;49.80;;;;;;5111126;27;20080;-52
2021/03/26 04:37:28;;;;;;;2.15;0.45;;;16.10;49.90;;;;;;5116595;27;20080;-54
2021/03/26 04:40:07;;;;;;;5.32;0.45;;;16.10;49.60;;;;;;5115384;27;20092;-53
2021/03/26 04:42:42;;;;;;;1.90;0.40;;;16.10;49.50;;;;;;5120656;27;20074;-54
2021/03/26 04:45:12;;;;;;;1.65;0.50;;;16.00;49.50;;;;;;5112671;27;20543;-52
2021/03/26 04:48:25;;;;;;;4.50;0.60;;;16.00;49.50;;;;;;5114042;27;20076;-53
2021/03/26 04:51:00;;;;;;;4.75;0.95;;;16.00;49.20;;;;;;5091740;27;20109;-53
2021/03/26 04:53:41;;;;;;;3.17;0.80;;;16.00;49.10;;;;;;5115713;27;20523;-55
2021/03/26 04:56:15;;;;;;;10.85;2.55;;;16.10;49.20;;;;;;5115877;27;20075;-53
2021/03/26 04:58:47;;;;;;;6.90;0.65;;;16.00;49.00;;;;;;5119159;27;20079;-53
2021/03/26 05:01:15;;;;;;;2.75;0.60;;;16.00;48.80;;;;;;5115695;27;20079;-57
2021/03/26 05:03:50;;;;;;;3.33;0.60;;;15.90;48.80;;;;;;5116159;27;20192;-56
2021/03/26 05:06:34;;;;;;;3.97;0.73;;;15.80;48.90;;;;;;5115394;28;20474;-51
2021/03/26 05:09:15;;;;;;;3.97;0.70;;;15.90;49.00;;;;;;5115787;28;20118;-52
2021/03/26 05:11:47;;;;;;;6.13;1.17;;;15.90;48.90;;;;;;5111502;28;20180;-55
2021/03/26 05:14:31;;;;;;;3.75;0.75;;;15.80;48.90;;;;;;5114070;28;20068;-58
2021/03/26 05:17:12;;;;;;;8.05;0.70;;;15.80;48.80;;;;;;5111582;28;20106;-56
2021/03/26 05:19:51;;;;;;;5.25;0.80;;;15.80;48.50;;;;;;5110030;28;20080;-52
2021/03/26 05:22:17;;;;;;;3.28;0.60;;;15.80;48.30;;;;;;5111284;28;20660;-55
2021/03/26 05:24:47;;;;;;;;;;;15.80;47.70;;;;;;5115960;28;20175;-55
2021/03/26 05:27:13;;;;;;;2.63;0.88;;;15.80;47.60;;;;;;5112927;27;21402;-57
2021/03/26 05:29:40;;;;;;;3.17;0.88;;;15.80;47.40;;;;;;5119930;27;20076;-57
2021/03/26 05:32:21;;;;;;;1.88;0.80;;;15.70;47.20;;;;;;5121260;27;20172;-51
2021/03/26 05:35:07;;;;;;;4.88;0.85;;;15.60;47.00;;;;;;5117734;27;20075;-57
2021/03/26 05:37:40;;;;;;;3.90;1.15;;;15.70;46.40;;;;;;5119530;27;20071;-58
2021/03/26 05:40:16;;;;;;;1.60;0.80;;;15.70;45.40;;;;;;5120735;27;20076;-55
2021/03/26 05:42:58;;;;;;;7.85;0.90;;;15.70;45.40;;;;;;5116778;27;20135;-56
2021/03/26 05:45:56;;;;;;;2.67;1.10;;;15.70;44.70;;;;;;5117570;27;20454;-56
2021/03/26 05:49:05;;;;;;;2.97;0.90;;;15.70;45.20;;;;;;5117805;27;20076;-53
2021/03/26 05:51:49;;;;;;;3.33;1.20;;;15.60;45.10;;;;;;5121626;27;20067;-53
2021/03/26 05:54:34;;;;;;;2.55;0.73;;;15.60;45.10;;;;;;5120637;27;20525;-52
2021/03/26 05:57:12;;;;;;;4.30;0.88;;;15.60;44.50;;;;;;5113577;27;20486;-51
2021/03/26 05:59:51;;;;;;;4.93;1.02;;;15.60;44.50;;;;;;5120517;27;20078;-54
2021/03/26 06:03:11;;;;;;;1.83;0.90;;;15.60;44.80;;;;;;5115655;27;20072;-51
2021/03/26 06:06:14;;;;;;;1.27;0.75;;;15.60;45.20;;;;;;5039578;28;20116;-52
2021/03/26 06:09:02;;;;;;;3.78;0.90;;;15.60;45.00;;;;;;5118947;27;20086;-54
2021/03/26 06:12:12;;;;;;;1.92;0.80;;;15.60;45.00;;;;;;5123148;27;20110;-51
2021/03/26 06:15:00;;;;;;;1.98;0.85;;;15.60;45.00;;;;;;5114333;27;20531;-51
2021/03/26 06:17:40;;;;;;;;;;;15.60;45.40;;;;;;5116423;27;20121;-50
2021/03/26 06:20:38;;;;;;;5.97;0.80;;;15.60;45.60;;;;;;5121261;27;20689;-50
2021/03/26 06:23:43;;;;;;;3.75;0.70;;;15.60;46.20;;;;;;5113642;27;20079;-54
2021/03/26 06:26:28;;;;;;;7.07;0.95;;;15.70;46.70;;;;;;5116490;27;20572;-52
2021/03/26 06:29:00;;;;;;;4.95;0.80;;;15.70;46.90;;;;;;5121524;27;20155;-52
2021/03/26 06:31:51;;;;;;;5.90;0.80;;;15.70;47.00;;;;;;5122201;27;20068;-54
2021/03/26 06:34:30;;;;;;;7.63;1.27;;;15.70;47.30;;;;;;5125158;27;20079;-53
2021/03/26 06:37:05;;;;;;;2.25;0.68;;;15.70;47.50;;;;;;5121248;27;20068;-54
2021/03/26 06:39:55;;;;;;;7.35;1.30;;;15.60;48.00;;;;;;5121897;27;20081;-52
2021/03/26 06:42:32;;;;;;;4.47;0.60;;;15.60;48.10;;;;;;5118331;27;20074;-51
2021/03/26 06:45:43;;;;;;;8.18;1.30;;;15.60;48.20;;;;;;5117899;27;20091;-55
2021/03/26 06:48:43;;;;;;;2.05;0.90;;;15.40;48.50;;;;;;5102878;27;20076;-50
2021/03/26 06:51:24;;;;;;;3.70;1.33;;;15.50;48.50;;;;;;5113846;27;20076;-56
2021/03/26 06:54:06;;;;;;;1.92;1.13;;;15.50;48.20;;;;;;5117937;27;20110;-53
2021/03/26 06:57:09;;;;;;;4.63;1.27;;;15.40;48.10;;;;;;5115886;27;20554;-56
2021/03/26 07:00:14;;;;;;;3.22;1.20;;;15.40;48.00;;;;;;5117895;27;20468;-53
2021/03/26 07:02:58;;;;;;;3.03;0.90;;;15.40;48.00;;;;;;5117695;27;20432;-53
2021/03/26 07:05:52;;;;;;;4.10;0.75;;;15.40;48.00;;;;;;5119188;27;20486;-53
2021/03/26 07:08:25;;;;;;;2.72;0.73;;;15.50;48.20;;;;;;5106867;27;20179;-53
2021/03/26 07:11:18;;;;;;;3.97;0.90;;;15.40;48.30;;;;;;5110673;27;20545;-52
2021/03/26 07:14:07;;;;;;;2.50;1.00;;;15.40;48.60;;;;;;5118280;27;20492;-54
2021/03/26 07:16:40;;;;;;;2.13;0.90;;;15.30;48.80;;;;;;5113703;27;20073;-51
2021/03/26 07:19:19;;;;;;;2.15;0.68;;;15.30;48.90;;;;;;5120722;27;20099;-52
2021/03/26 07:22:10;;;;;;;7.40;1.13;;;15.30;48.80;;;;;;5114545;27;20213;-51
2021/03/26 07:24:45;;;;;;;2.60;0.80;;;15.30;48.90;;;;;;5112238;27;20088;-49
2021/03/26 07:27:12;;;;;;;7.05;1.13;;;15.30;48.90;;;;;;5111930;27;20589;-51
2021/03/26 07:29:56;;;;;;;;;;;15.30;48.80;;;;;;5117238;27;20429;-51
2021/03/26 07:32:31;;;;;;;6.53;1.15;;;15.20;48.80;;;;;;5115391;27;20046;-56
2021/03/26 07:35:20;;;;;;;2.17;0.85;;;15.20;49.00;;;;;;5116272;27;20065;-56
2021/03/26 07:37:46;;;;;;;2.53;1.27;;;15.20;49.00;;;;;;5113444;27;20075;-52
2021/03/26 07:40:50;;;;;;;4.32;1.30;;;15.20;49.20;;;;;;5114699;27;20072;-54
2021/03/26 07:43:22;;;;;;;1.70;0.88;;;15.20;49.30;;;;;;5116985;27;20495;-55
2021/03/26 07:46:16;;;;;;;2.50;1.35;;;15.20;49.50;;;;;;5116078;27;20455;-55
2021/03/26 07:48:46;;;;;;;3.92;1.52;;;15.20;49.70;;;;;;5114906;27;20159;-52
2021/03/26 07:51:21;;;;;;;1.58;1.13;;;15.20;49.90;;;;;;5116141;27;20544;-52
2021/03/26 07:54:11;;;;;;;2.30;0.95;;;15.10;50.00;;;;;;5119143;27;20188;-50
2021/03/26 07:56:55;;;;;;;6.07;1.27;;;15.10;50.00;;;;;;5117140;27;20630;-51
2021/03/26 07:59:27;;;;;;;1.42;0.80;;;15.10;50.20;;;;;;5116402;27;20547;-53
2021/03/26 08:02:17;;;;;;;1.05;0.50;;;15.10;50.30;;;;;;5112749;27;20079;-51
2021/03/26 08:04:53;;;;;;;1.30;0.50;;;15.10;50.30;;;;;;5116214;27;20096;-54
2021/03/26 08:07:28;;;;;;;2.55;0.47;;;15.10;50.30;;;;;;5114460;27;20162;-54
2021/03/26 08:09:58;;;;;;;1.58;0.55;;;15.10;50.30;;;;;;5116131;27;20120;-54
2021/03/26 08:12:57;;;;;;;1.77;0.60;;;15.10;50.40;;;;;;5120519;27;20156;-53
2021/03/26 08:15:42;;;;;;;0.30;0.30;;;15.10;50.50;;;;;;5101300;27;20100;-55
2021/03/26 08:18:41;;;;;;;1.65;0.30;;;15.00;50.70;;;;;;5116079;27;20075;-51
2021/03/26 08:21:53;;;;;;;2.33;0.40;;;14.90;50.70;;;;;;5118032;27;20528;-52
2021/03/26 08:24:47;;;;;;;2.75;0.60;;;15.00;50.70;;;;;;5047710;28;20526;-52
2021/03/26 08:27:41;;;;;;;1.75;0.40;;;14.90;50.80;;;;;;5047094;28;20077;-54
2021/03/26 08:30:37;;;;;;;2.65;0.70;;;14.90;51.00;;;;;;5104566;27;20091;-53
2021/03/26 08:33:10;;;;;;;2.88;0.57;;;14.80;51.10;;;;;;5112157;27;20068;-56
2021/03/26 08:36:01;;;;;;;0.40;0.30;;;14.80;51.20;;;;;;5115969;27;20076;-53
2021/03/26 08:38:40;;;;;;;0.43;0.40;;;14.90;51.30;;;;;;5115552;27;20068;-50
2021/03/26 08:41:32;;;;;;;0.40;0.40;;;14.90;51.20;;;;;;5115231;27;20305;-53
2021/03/26 08:43:59;;;;;;;0.95;0.57;;;15.00;51.00;;;;;;5091354;27;20079;-52
2021/03/26 08:46:37;;;;;;;1.13;0.50;;;14.90;51.00;;;;;;5114403;27;20096;-50
2021/03/26 08:49:23;;;;;;;0.75;0.60;;;14.90;51.20;;;;;;5116289;27;20095;-53
2021/03/26 08:52:24;;;;;;;0.40;0.40;;;14.90;51.20;;;;;;5110614;27;20064;-50
2021/03/26 08:55:27;;;;;;;0.55;0.45;;;14.90;51.30;;;;;;5112015;27;20076;-50
2021/03/26 08:58:24;;;;;;;0.55;0.40;;;14.90;51.30;;;;;;5119082;27;20059;-51
2021/03/26 09:01:18;;;;;;;0.45;0.20;;;14.90;51.40;;;;;;5110986;27;20427;-52
2021/03/26 09:04:12;;;;;;;2.83;0.40;;;14.90;51.50;;;;;;5100717;28;20126;-54
2021/03/26 09:07:16;;;;;;;1.60;0.40;;;14.90;51.50;;;;;;5114307;28;20091;-53
2021/03/26 09:10:08;;;;;;;2.95;0.40;;;14.80;51.70;;;;;;5113653;28;20071;-51
2021/03/26 09:13:01;;;;;;;0.65;0.40;;;14.80;52.50;;;;;;5115893;28;20445;-53
2021/03/26 09:15:28;;;;;;;0.85;0.40;;;14.80;52.10;;;;;;5111407;28;20524;-52
2021/03/26 09:18:03;;;;;;;0.40;0.25;;;14.80;52.30;;;;;;5115291;28;20183;-53
2021/03/26 09:20:54;;;;;;;0.60;0.30;;;14.70;52.40;;;;;;5115656;28;20078;-54
2021/03/26 09:23:54;;;;;;;0.65;0.38;;;14.70;52.60;;;;;;5111932;28;20163;-52
2021/03/26 09:26:40;;;;;;;2.45;0.45;;;14.60;52.90;;;;;;5112168;28;20092;-52
2021/03/26 09:29:32;;;;;;;0.20;0.20;;;14.50;53.20;;;;;;5117263;28;20104;-52
2021/03/26 09:32:20;;;;;;;0.30;0.30;;;14.50;53.50;;;;;;5114926;28;20083;-54
2021/03/26 09:35:10;;;;;;;1.42;0.40;;;14.50;53.70;;;;;;5116674;28;20068;-51
2021/03/26 09:37:58;;;;;;;0.55;0.30;;;14.40;53.80;;;;;;5111720;28;20072;-51
2021/03/26 09:40:29;;;;;;;0.57;0.25;;;14.40;53.80;;;;;;5112758;28;20159;-52
2021/03/26 09:43:12;;;;;;;1.85;0.30;;;14.40;53.70;;;;;;5115413;28;20109;-55
2021/03/26 09:46:03;;;;;;;0.30;0.30;;;14.40;53.60;;;;;;5112041;28;20131;-54
2021/03/26 09:48:47;;;;;;;3.72;0.43;;;14.40;53.70;;;;;;5113612;28;20185;-57
2021/03/26 09:51:47;;;;;;;1.85;0.40;;;14.40;53.70;;;;;;5112971;28;20167;-56
2021/03/26 09:54:47;;;;;;;0.20;0.20;;;14.30;53.90;;;;;;5112313;28;20069;-51
2021/03/26 09:57:25;;;;;;;1.02;0.35;;;14.20;54.00;;;;;;5098512;28;20567;-55
2021/03/26 09:59:51;;;;;;;0.30;0.30;;;14.20;54.20;;;;;;5116156;28;20509;-54
2021/03/26 10:02:30;;;;;;;1.45;0.20;;;14.10;54.20;;;;;;5113047;28;20084;-51
2021/03/26 10:05:20;;;;;;;1.90;0.20;;;14.10;54.40;;;;;;5112390;28;20091;-51
2021/03/26 10:07:52;;;;;;;1.67;0.30;;;14.00;54.70;;;;;;5109808;28;20076;-53
2021/03/26 10:13:19;;;;;;;0.95;0.32;;;14.00;54.80;;;;;;5110863;27;20100;-54
2021/03/26 10:15:59;;;;;;;1.75;0.50;;;13.90;54.80;;;;;;5118192;27;20531;-53
2021/03/26 10:18:36;;;;;;;2.72;0.50;;;13.90;55.00;;;;;;5120251;27;20183;-53
2021/03/26 10:21:03;;;;;;;3.75;0.40;;;13.80;54.70;;;;;;5118242;27;20079;-50
2021/03/26 10:23:29;;;;;;;2.58;0.45;;;13.80;55.00;;;;;;5117170;27;20167;-52
2021/03/26 10:26:11;;;;;;;1.90;0.73;;;13.70;55.10;;;;;;5115098;27;20916;-55
2021/03/26 10:28:44;;;;;;;2.55;0.43;;;13.70;55.30;;;;;;5117877;27;20083;-55
2021/03/26 10:31:25;;;;;;;1.27;0.50;;;13.60;55.40;;;;;;5122495;27;20079;-50
2021/03/26 10:33:58;;;;;;;1.27;0.43;;;13.60;55.90;;;;;;5119103;27;20452;-52
2021/03/26 10:36:39;;;;;;;1.17;0.40;;;13.40;56.20;;;;;;5116441;27;20155;-51
2021/03/26 10:39:10;;;;;;;0.63;0.17;;;13.50;58.30;;;;;;5114618;27;20068;-52
2021/03/26 10:42:07;;;;;;;0.22;0.22;;;13.70;58.50;;;;;;5119594;27;20581;-53
2021/03/26 10:45:14;;;;;;;0.40;0.20;;;13.80;58.40;;;;;;5113537;27;20098;-52
2021/03/26 10:47:45;;;;;;;0.32;0.32;;;13.80;58.60;;;;;;5029664;28;20081;-50
2021/03/26 10:50:11;;;;;;;0.52;0.20;;;13.80;58.80;;;;;;5105191;27;20084;-51
2021/03/26 10:52:44;;;;;;;1.08;0.32;;;13.80;58.70;;;;;;5114219;27;20076;-52
2021/03/26 10:55:21;;;;;;;0.75;0.20;;;13.80;58.30;;;;;;5118985;27;20104;-51
2021/03/26 10:58:13;;;;;;;2.85;0.52;;;13.90;57.90;;;;;;5113608;27;20083;-51
2021/03/26 11:00:48;;;;;;;1.67;0.30;;;14.00;57.50;;;;;;5113575;27;20517;-50
2021/03/26 11:03:31;;;;;;;28.83;17.30;;;14.00;56.90;;;;;;5119965;27;20113;-51
2021/03/26 11:06:08;;;;;;;108.95;63.28;;;14.00;56.40;;;;;;5122481;27;20111;-50
2021/03/26 11:08:35;;;;;;;228.48;151.13;;;14.10;55.90;;;;;;5116639;27;20121;-51
2021/03/26 11:11:10;;;;;;;;;;;14.20;56.10;;;;;;5118771;27;20112;-51
2021/03/26 11:14:13;;;;;;;161.30;98.55;;;14.20;55.20;;;;;;5119752;27;19960;-51
2021/03/26 11:16:59;;;;;;;51.25;18.35;;;14.10;55.20;;;;;;5118556;27;20082;-53
2021/03/26 11:19:34;;;;;;;6.87;1.50;;;14.00;55.40;;;;;;5115188;27;20064;-52
2021/03/26 11:22:21;;;;;;;4.65;1.00;;;14.00;55.50;;;;;;5110758;27;20319;-52
2021/03/26 11:25:07;;;;;;;2.72;0.57;;;14.00;55.50;;;;;;5113283;27;20106;-51
2021/03/26 11:27:53;;;;;;;2.72;0.80;;;13.90;55.50;;;;;;5116634;27;20067;-51
2021/03/26 11:30:25;;;;;;;4.43;0.60;;;13.90;55.60;;;;;;5113335;27;20569;-51
2021/03/26 11:33:17;;;;;;;2.97;0.60;;;14.00;55.40;;;;;;5115230;27;20516;-52
2021/03/26 11:35:46;;;;;;;0.47;0.40;;;13.90;55.40;;;;;;5112368;27;20474;-51
2021/03/26 11:38:22;;;;;;;2.75;0.50;;;13.90;55.30;;;;;;5120405;27;20500;-54
2021/03/26 11:41:07;;;;;;;3.63;0.73;;;13.90;55.30;;;;;;5117590;27;20503;-56
2021/03/26 11:43:45;;;;;;;3.17;0.63;;;13.90;55.30;;;;;;5114218;27;20107;-50
2021/03/26 11:46:16;;;;;;;2.95;0.52;;;13.90;55.30;;;;;;5116848;27;20436;-51
2021/03/26 11:48:55;;;;;;;2.83;0.50;;;13.90;55.60;;;;;;5115958;27;20171;-52
2021/03/26 11:51:45;;;;;;;1.83;0.70;;;13.90;55.50;;;;;;5097790;28;20068;-51
2021/03/26 11:54:33;;;;;;;3.13;0.60;;;13.90;55.80;;;;;;5095555;27;20076;-50
2021/03/26 11:57:03;;;;;;;3.30;0.80;;;13.90;55.80;;;;;;5112942;27;20076;-51
2021/03/26 11:59:53;;;;;;;3.72;0.95;;;13.80;54.50;;;;;;5113604;27;20176;-51
2021/03/26 12:02:25;;;;;;;6.38;1.40;;;13.70;53.90;;;;;;5100324;27;20080;-53
2021/03/26 12:04:57;;;;;;;4.82;1.10;;;13.60;53.40;;;;;;5114144;27;20144;-50
2021/03/26 12:07:51;;;;;;;5.68;1.30;;;13.60;53.20;;;;;;5118450;27;20074;-50
2021/03/26 12:10:40;;;;;;;5.28;0.90;;;13.50;53.30;;;;;;5117897;27;20723;-53
2021/03/26 12:13:25;;;;;;;3.90;1.15;;;13.40;53.70;;;;;;5116751;27;20616;-54
2021/03/26 12:16:24;;;;;;;6.15;1.42;;;13.40;53.90;;;;;;5114241;27;20076;-54
2021/03/26 12:18:56;;;;;;;1.73;0.63;;;13.20;54.70;;;;;;5117507;27;20064;-53
2021/03/26 12:22:01;;;;;;;5.25;1.10;;;13.20;55.00;;;;;;5114755;27;20079;-53
2021/03/26 12:24:48;;;;;;;7.20;1.02;;;13.20;55.40;;;;;;5116868;27;20105;-54
2021/03/26 12:27:40;;;;;;;2.42;1.00;;;13.20;55.60;;;;;;5111497;27;20569;-50
2021/03/26 12:30:21;;;;;;;9.02;2.13;;;13.20;55.60;;;;;;5110107;27;20436;-51
2021/03/26 12:33:00;;;;;;;7.15;1.10;;;13.20;55.40;;;;;;5112552;27;20067;-50
2021/03/26 12:35:43;;;;;;;6.47;1.10;;;13.20;55.30;;;;;;5115166;27;20076;-54
2021/03/26 12:38:26;;;;;;;4.72;0.90;;;13.30;55.40;;;;;;5116030;27;20087;-51
2021/03/26 12:40:56;;;;;;;11.02;1.40;;;13.30;55.30;;;;;;5116487;27;20072;-56
2021/03/26 12:43:38;;;;;;;5.97;0.88;;;13.40;55.20;;;;;;5116280;27;20524;-52
2021/03/26 12:46:11;;;;;;;6.03;0.50;;;13.40;56.30;;;;;;5121449;27;20102;-53
2021/03/26 12:49:14;;;;;;;1.63;0.57;;;13.60;58.50;;;;;;5116565;27;20068;-55
2021/03/26 12:52:01;;;;;;;1.65;0.25;;;13.90;58.80;;;;;;5075993;27;20169;-54
2021/03/26 12:54:42;;;;;;;1.98;0.30;;;14.20;57.80;;;;;;5107490;27;20101;-52
2021/03/26 12:57:22;;;;;;;2.95;0.30;;;14.30;57.90;;;;;;5111849;27;20126;-53
2021/03/26 12:59:52;;;;;;;1.88;0.20;;;14.40;56.90;;;;;;5110190;28;20075;-50
2021/03/26 13:02:27;;;;;;;4.60;0.70;;;14.50;56.40;;;;;;5115505;28;20483;-51
2021/03/26 13:05:20;;;;;;;2.13;0.80;;;14.50;54.90;;;;;;5109867;27;20099;-54
2021/03/26 13:07:54;;;;;;;6.30;1.38;;;14.40;53.40;;;;;;5116911;27;20068;-52
2021/03/26 13:10:27;;;;;;;6.32;1.20;;;14.30;51.90;;;;;;5091516;28;20181;-53
2021/03/26 13:13:10;;;;;;;4.25;1.00;;;14.30;51.30;;;;;;5075875;28;20077;-54
2021/03/26 13:15:40;;;;;;;4.28;1.13;;;14.30;50.70;;;;;;5081314;28;20069;-51
2021/03/26 13:18:12;;;;;;;4.25;1.45;;;14.30;50.80;;;;;;5078175;28;20068;-53
2021/03/26 13:21:25;;;;;;;4.63;1.30;;;14.30;49.70;;;;;;5080577;28;20077;-54
2021/03/26 13:24:00;;;;;;;6.05;1.30;;;14.20;49.00;;;;;;5085422;28;20521;-52
2021/03/26 13:26:29;;;;;;;4.05;1.40;;;14.20;48.60;;;;;;5079876;28;20179;-52
2021/03/26 13:29:01;;;;;;;14.45;1.98;;;14.20;48.70;;;;;;5078538;28;20080;-53
2021/03/26 13:31:35;;;;;;;3.42;1.30;;;14.20;48.60;;;;;;5075273;28;20088;-56
2021/03/26 13:34:30;;;;;;;6.97;1.70;;;14.20;48.50;;;;;;5076360;28;20076;-53
2021/03/26 13:37:05;;;;;;;3.33;1.10;;;14.20;48.30;;;;;;5078868;28;20164;-51
2021/03/26 13:39:44;;;;;;;4.00;1.30;;;14.20;48.20;;;;;;5078567;28;20127;-51
2021/03/26 13:42:31;;;;;;;5.63;1.45;;;14.10;48.10;;;;;;5075622;28;20172;-50
2021/03/26 13:45:01;;;;;;;10.07;2.22;;;14.10;48.20;;;;;;5077803;28;20574;-52
2021/03/26 13:47:42;;;;;;;7.72;1.60;;;14.10;48.70;;;;;;5076876;28;20083;-53
2021/03/26 13:50:12;;;;;;;5.22;1.63;;;14.10;49.00;;;;;;5087810;28;20081;-51
2021/03/26 13:52:44;;;;;;;7.20;1.83;;;14.00;49.10;;;;;;5090336;28;20440;-53
2021/03/26 13:55:17;;;;;;;11.27;2.20;;;14.00;49.30;;;;;;5083627;28;20072;-52